Time;durP1;ratioP1;P1;durP2;ratioP2;P2;SDS_P1;SDS_P2;PMS_P1;PMS_P2;Temp;Humidity;BMP_temperature;BMP_pressure;BME280_temperature;BME280_humidity;BME280_pressure;Samples;Min_cycle;Max_cycle;Signal;HPM_P1;HPM_P2
2023/09/21 00:00:44;;;;;;;23.80;13.63;;;;;;;17.54;81.18;100685.34;126983;1086;101855;-82
2023/09/21 00:03:29;;;;;;;23.63;13.67;;;;;;;17.51;81.64;100680.01;127014;1085;101766;-82
2023/09/21 00:05:58;;;;;;;23.93;14.60;;;;;;;17.51;81.44;100682.66;127057;1086;102111;-81
2023/09/21 00:08:27;;;;;;;23.37;14.30;;;;;;;17.49;82.03;100679.11;127045;1086;104149;-81
2023/09/21 00:10:58;;;;;;;23.10;13.90;;;;;;;17.48;81.47;100682.62;126967;1085;101906;-81
2023/09/21 00:13:27;;;;;;;21.57;13.70;;;;;;;17.50;81.86;100691.52;127068;1086;102255;-81
2023/09/21 00:15:56;;;;;;;21.50;13.47;;;;;;;17.50;81.79;100686.21;127128;1086;102067;-81
2023/09/21 00:18:25;;;;;;;22.10;13.87;;;;;;;17.49;81.70;100689.73;127036;1085;104189;-81
2023/09/21 00:20:56;;;;;;;22.40;14.40;;;;;;;17.48;81.95;100687.94;127215;1086;101978;-81
2023/09/21 00:23:25;;;;;;;22.83;13.77;;;;;;;17.46;81.81;100684.39;127091;1085;102002;-81
2023/09/21 00:25:58;;;;;;;21.40;13.63;;;;;;;17.43;82.48;100681.70;126989;1086;102217;-81
2023/09/21 00:28:27;;;;;;;24.37;14.80;;;;;;;17.40;82.68;100679.89;127028;1086;102067;-81
2023/09/21 00:30:57;;;;;;;22.70;13.87;;;;;;;17.38;83.17;100675.47;127201;1086;102136;-81
2023/09/21 00:33:26;;;;;;;20.97;12.90;;;;;;;17.34;82.96;100676.30;127033;1086;104149;-80
2023/09/21 00:35:58;;;;;;;21.33;13.03;;;;;;;17.29;83.58;100670.94;127348;1085;104162;-80
2023/09/21 00:38:27;;;;;;;22.07;14.00;;;;;;;17.23;84.26;100668.22;127258;1086;102067;-81
2023/09/21 00:40:58;;;;;;;20.65;13.00;;;;;;;17.18;84.79;100668.17;128085;1085;104318;-81
2023/09/21 00:43:28;;;;;;;22.20;13.83;;;;;;;17.14;84.38;100676.07;127112;1086;104156;-81
2023/09/21 00:46:01;;;;;;;24.07;13.73;;;;;;;17.11;85.00;100673.38;127077;1086;104168;-81
2023/09/21 00:48:36;;;;;;;20.55;13.15;;;;;;;17.11;83.98;100681.34;127075;1086;101869;-81
2023/09/21 00:51:07;;;;;;;26.63;15.07;;;;;;;17.11;84.18;100670.73;127045;1086;102031;-81
2023/09/21 00:53:39;;;;;;;22.77;13.83;;;;;;;17.13;84.59;100674.31;127026;1086;101980;-81
2023/09/21 00:56:11;;;;;;;22.40;13.83;;;;;;;17.13;84.82;100672.54;127044;1086;104235;-81
2023/09/21 00:58:44;;;;;;;21.97;14.30;;;;;;;17.11;84.59;100668.99;127104;1086;104338;-81
2023/09/21 01:01:13;;;;;;;23.40;14.30;;;;;;;17.12;84.70;100678.70;127097;1085;104321;-80
2023/09/21 01:03:43;;;;;;;23.43;14.07;;;;;;;17.07;85.17;100668.05;127118;1086;104369;-80
2023/09/21 01:06:14;;;;;;;23.33;13.70;;;;;;;17.03;85.54;100670.64;128174;1085;102306;-81
2023/09/21 01:08:42;;;;;;;20.70;13.47;;;;;;;16.98;85.76;100669.70;127102;1086;102166;-81
2023/09/21 01:11:14;;;;;;;22.87;14.23;;;;;;;16.95;85.74;100664.36;127229;1086;102006;-81
2023/09/21 01:13:43;;;;;;;24.10;14.67;;;;;;;16.95;86.31;100669.67;127428;1086;102070;-81
2023/09/21 01:16:13;;;;;;;21.90;14.57;;;;;;;16.93;85.77;100656.39;127404;1086;104194;-81
2023/09/21 01:18:43;;;;;;;24.03;14.30;;;;;;;16.92;86.02;100666.98;127522;1085;104181;-81
2023/09/21 01:21:16;;;;;;;24.23;14.30;;;;;;;16.89;86.79;100659.87;127532;1086;101999;-81
2023/09/21 01:23:46;;;;;;;22.53;14.10;;;;;;;16.87;86.93;100661.63;127277;1086;102003;-82
2023/09/21 01:26:16;;;;;;;22.33;14.33;;;;;;;16.86;86.98;100655.44;127331;1086;102157;-81
2023/09/21 01:28:46;;;;;;;21.77;14.63;;;;;;;16.85;87.34;100658.03;127244;1085;102121;-81
2023/09/21 01:31:15;;;;;;;22.73;13.50;;;;;;;16.86;87.01;100655.44;127172;1086;101992;-81
2023/09/21 01:33:45;;;;;;;23.00;14.40;;;;;;;16.88;86.91;100651.03;127327;1086;101738;-81
2023/09/21 01:36:16;;;;;;;23.90;14.83;;;;;;;16.91;86.77;100650.20;127299;1086;104165;-81
2023/09/21 01:38:46;;;;;;;22.43;14.03;;;;;;;16.93;86.45;100650.22;127198;1086;102153;-81
2023/09/21 01:41:17;;;;;;;21.43;14.10;;;;;;;16.97;86.45;100652.01;126973;1086;102117;-82
2023/09/21 01:43:45;;;;;;;23.37;14.53;;;;;;;16.99;86.00;100651.17;127081;1086;102080;-82
2023/09/21 01:46:21;;;;;;;22.20;14.20;;;;;;;17.00;86.52;100652.05;127097;1086;104159;-82
2023/09/21 01:48:51;;;;;;;23.07;14.93;;;;;;;16.99;86.47;100642.34;127091;1086;101774;-81
2023/09/21 01:51:20;;;;;;;22.17;13.67;;;;;;;17.00;86.51;100652.05;127021;1086;102322;-81
2023/09/21 01:53:49;;;;;;;20.90;13.87;;;;;;;16.99;86.86;100645.87;127093;1086;104162;-81
2023/09/21 01:56:20;;;;;;;21.25;13.40;;;;;;;16.98;87.07;100641.42;127032;1086;104190;-81
2023/09/21 01:58:49;;;;;;;24.37;14.10;;;;;;;16.97;87.02;100646.70;127172;1086;104254;-81
2023/09/21 02:01:18;;;;;;;21.90;14.20;;;;;;;16.95;86.55;100637.86;126940;1086;102009;-82
2023/09/21 02:03:47;;;;;;;25.47;14.77;;;;;;;16.95;87.06;100637.86;127940;1086;104248;-82
2023/09/21 02:06:15;;;;;;;22.10;14.00;;;;;;;16.94;87.18;100636.06;127034;1086;102002;-82
2023/09/21 02:08:44;;;;;;;22.70;14.10;;;;;;;16.95;87.33;100637.86;127061;1086;104175;-82
2023/09/21 02:11:14;;;;;;;22.90;13.67;;;;;;;16.91;87.32;100642.24;126801;1086;104231;-82
2023/09/21 02:13:42;;;;;;;20.80;13.10;;;;;;;16.91;86.94;100644.90;127098;1086;101864;-81
2023/09/21 02:16:14;;;;;;;21.43;13.37;;;;;;;16.89;86.53;100642.23;127083;1086;104267;-81
2023/09/21 02:18:44;;;;;;;23.73;14.10;;;;;;;16.88;87.14;100645.73;127063;1086;107631;-82
2023/09/21 02:21:17;;;;;;;21.80;13.97;;;;;;;16.86;87.37;100642.19;127065;1086;102711;-81
2023/09/21 02:23:45;;;;;;;20.90;14.30;;;;;;;16.87;87.37;100643.06;127019;1086;101877;-81
2023/09/21 02:26:15;;;;;;;23.03;14.83;;;;;;;16.84;87.63;100651.86;127107;1086;104171;-82
2023/09/21 02:28:44;;;;;;;22.23;13.97;;;;;;;16.80;87.96;100639.42;127172;1086;104159;-81
2023/09/21 02:31:13;;;;;;;24.13;15.03;;;;;;;16.76;87.71;100640.25;127107;1086;101852;-81
2023/09/21 02:33:42;;;;;;;20.87;13.97;;;;;;;16.72;88.07;100646.41;127040;1086;104089;-81
2023/09/21 02:36:19;;;;;;;23.10;14.63;;;;;;;16.69;88.20;100646.36;127124;1085;104146;-81
2023/09/21 02:38:47;;;;;;;23.77;14.53;;;;;;;16.68;87.92;100649.87;127080;1086;104158;-82
2023/09/21 02:41:16;;;;;;;24.50;13.95;;;;;;;16.63;88.23;100641.86;127053;1086;102106;-82
2023/09/21 02:43:45;;;;;;;22.23;14.50;;;;;;;16.61;88.36;100648.91;127049;1086;104143;-81
2023/09/21 02:46:14;;;;;;;24.53;15.87;;;;;;;16.60;87.78;100643.59;127105;1086;104260;-82
2023/09/21 02:48:43;;;;;;;26.40;14.83;;;;;;;16.59;88.42;100636.50;127094;1086;102267;-81
2023/09/21 02:51:13;;;;;;;24.53;15.17;;;;;;;16.59;88.45;100647.09;127010;1086;101932;-82
2023/09/21 02:53:42;;;;;;;24.53;14.63;;;;;;;16.56;88.58;100642.64;126959;1086;102102;-82
2023/09/21 02:56:11;;;;;;;27.40;16.13;;;;;;;16.56;88.54;100649.70;126793;1086;104293;-81
2023/09/21 02:58:41;;;;;;;24.40;15.23;;;;;;;16.57;88.79;100651.49;127071;1086;104156;-83
2023/09/21 03:01:11;;;;;;;23.80;14.67;;;;;;;16.58;88.54;100647.95;127093;1086;102006;-82
2023/09/21 03:03:40;;;;;;;30.37;15.67;;;;;;;16.58;89.50;100653.25;127025;1086;104261;-82
2023/09/21 03:06:12;;;;;;;21.33;14.07;;;;;;;16.57;89.10;100659.44;127035;1086;102459;-82
2023/09/21 03:08:41;;;;;;;22.83;15.27;;;;;;;16.58;88.96;100662.11;127069;1086;104248;-83
2023/09/21 03:11:11;;;;;;;22.03;14.67;;;;;;;16.62;89.07;100660.38;127096;1086;101990;-83
2023/09/21 03:13:39;;;;;;;26.33;15.10;;;;;;;16.67;88.62;100666.63;126848;1086;102115;-83
2023/09/21 03:16:13;;;;;;;23.00;14.27;;;;;;;16.71;88.23;100655.20;127049;1086;104174;-83
2023/09/21 03:18:42;;;;;;;21.60;14.10;;;;;;;16.68;88.72;100658.70;126996;1086;104053;-83
2023/09/21 03:21:15;;;;;;;24.40;15.47;;;;;;;16.65;89.37;100658.66;127006;1086;104156;-82
2023/09/21 03:23:45;;;;;;;23.67;14.40;;;;;;;16.60;90.12;100651.53;127051;1086;104162;-82
2023/09/21 03:26:15;;;;;;;22.47;14.63;;;;;;;16.55;90.61;100656.77;127065;1085;102009;-82
2023/09/21 03:28:47;;;;;;;23.03;15.30;;;;;;;16.50;89.73;100656.70;127031;1086;103344;-82
2023/09/21 03:31:15;;;;;;;24.03;16.17;;;;;;;16.46;89.86;100662.81;127147;1086;104223;-83
2023/09/21 03:33:46;;;;;;;23.43;15.33;;;;;;;16.45;89.27;100662.80;126987;1086;104295;-83
2023/09/21 03:36:16;;;;;;;25.87;16.00;;;;;;;16.44;89.07;100667.21;127027;1086;104079;-81
2023/09/21 03:38:47;;;;;;;23.73;15.00;;;;;;;16.42;88.80;100658.33;127059;1085;104225;-83
2023/09/21 03:41:15;;;;;;;24.23;15.30;;;;;;;16.41;88.78;100664.52;127034;1086;102009;-82
2023/09/21 03:43:44;;;;;;;22.67;15.30;;;;;;;16.42;88.56;100662.75;127059;1086;103442;-82
2023/09/21 03:46:13;;;;;;;24.23;14.67;;;;;;;16.39;89.07;100655.64;127076;1086;101976;-83
2023/09/21 03:48:43;;;;;;;22.40;15.37;;;;;;;16.38;88.89;100651.23;127079;1086;102232;-83
2023/09/21 03:51:12;;;;;;;24.13;15.23;;;;;;;16.37;89.35;100652.09;127002;1086;101854;-83
2023/09/21 03:53:52;;;;;;;24.90;16.20;;;;;;;16.38;89.00;100664.47;127014;1086;104258;-83
2023/09/21 03:56:21;;;;;;;23.55;15.55;;;;;;;16.37;89.67;100652.09;126814;1086;101846;-84
2023/09/21 03:58:50;;;;;;;23.93;15.10;;;;;;;16.38;89.99;100656.53;126877;1086;104162;-82
2023/09/21 04:01:21;;;;;;;23.95;15.10;;;;;;;16.40;90.12;100653.91;127118;1086;104232;-82
2023/09/21 04:03:53;;;;;;;24.70;15.87;;;;;;;16.41;89.66;100650.36;127013;1086;102073;-82
2023/09/21 04:06:23;;;;;;;24.18;16.32;;;;;;;16.41;90.22;100658.31;127001;1086;102132;-82
2023/09/21 04:08:51;;;;;;;26.35;16.70;;;;;;;16.43;89.65;100659.25;127048;1086;102459;-81
2023/09/21 04:11:22;;;;;;;23.47;15.67;;;;;;;16.45;89.79;100660.14;127045;1086;101798;-83
2023/09/21 04:13:51;;;;;;;24.47;15.43;;;;;;;16.47;89.52;100659.31;127062;1086;102127;-81
2023/09/21 04:16:19;;;;;;;25.53;15.70;;;;;;;16.49;89.74;100661.98;127094;1086;102083;-82
2023/09/21 04:18:49;;;;;;;25.07;16.20;;;;;;;16.50;89.85;100662.00;127053;1086;104146;-82
2023/09/21 04:21:18;;;;;;;25.40;15.60;;;;;;;16.53;89.91;100659.40;127063;1086;101813;-82
2023/09/21 04:23:48;;;;;;;23.70;16.07;;;;;;;16.56;90.10;100660.30;127045;1086;102078;-83
2023/09/21 04:26:17;;;;;;;23.60;15.53;;;;;;;16.59;89.65;100666.52;127201;1086;104219;-80
2023/09/21 04:28:46;;;;;;;23.80;15.70;;;;;;;16.60;90.15;100665.66;127042;1086;102178;-82
2023/09/21 04:31:15;;;;;;;28.83;16.53;;;;;;;16.62;90.05;100663.03;127098;1086;104203;-82
2023/09/21 04:33:46;;;;;;;23.80;15.23;;;;;;;16.66;90.19;100671.05;127052;1086;101946;-84
2023/09/21 04:36:15;;;;;;;25.90;16.13;;;;;;;16.69;89.88;100664.91;126999;1086;104421;-83
2023/09/21 04:38:47;;;;;;;25.03;16.73;;;;;;;16.73;90.40;100669.36;126998;1086;104296;-81
2023/09/21 04:41:16;;;;;;;25.30;15.45;;;;;;;16.76;89.75;100663.22;126979;1086;104244;-82
2023/09/21 04:43:46;;;;;;;25.37;15.43;;;;;;;16.81;89.91;100669.45;127163;1086;101842;-80
2023/09/21 04:46:16;;;;;;;23.47;15.33;;;;;;;16.82;89.84;100664.17;127141;1086;104360;-83
2023/09/21 04:48:45;;;;;;;23.77;16.27;;;;;;;16.82;89.63;100669.48;126918;1086;102017;-82
2023/09/21 04:51:15;;;;;;;26.23;15.80;;;;;;;16.82;89.79;100672.13;126925;1086;104222;-81
2023/09/21 04:53:47;;;;;;;26.67;16.37;;;;;;;16.81;89.78;100667.72;126958;1086;102412;-82
2023/09/21 04:56:17;;;;;;;26.37;15.97;;;;;;;16.82;90.16;100679.20;126944;1089;104216;-82
2023/09/21 04:58:46;;;;;;;24.27;14.43;;;;;;;16.81;90.06;100669.45;127493;1086;104262;-81
2023/09/21 05:01:18;;;;;;;25.07;15.80;;;;;;;16.82;89.84;100677.42;127202;1086;104254;-81
2023/09/21 05:03:50;;;;;;;24.50;15.35;;;;;;;16.84;89.71;100678.36;127135;1086;104104;-79
2023/09/21 05:06:19;;;;;;;27.43;16.40;;;;;;;16.87;90.76;100674.87;127461;1086;101820;-79
2023/09/21 05:08:48;;;;;;;24.23;15.97;;;;;;;16.88;90.20;100674.89;128099;1085;101794;-81
2023/09/21 05:11:17;;;;;;;22.83;15.40;;;;;;;16.93;90.24;100682.02;126951;1086;102073;-77
2023/09/21 05:13:46;;;;;;;23.47;15.37;;;;;;;16.96;90.43;100676.76;127341;1086;104213;-78
2023/09/21 05:16:18;;;;;;;26.27;16.23;;;;;;;16.97;90.80;100679.42;128222;1086;101971;-78
2023/09/21 05:18:47;;;;;;;22.73;14.73;;;;;;;16.98;90.71;100682.95;126878;1086;101890;-81
2023/09/21 05:21:17;;;;;;;24.80;15.53;;;;;;;16.98;90.41;100681.19;127163;1086;102715;-79
2023/09/21 05:23:45;;;;;;;23.43;15.37;;;;;;;17.01;90.44;100678.57;128394;1085;103762;-81
2023/09/21 05:26:16;;;;;;;26.47;15.20;;;;;;;17.04;90.64;100680.38;128089;1085;104050;-82
2023/09/21 05:28:47;;;;;;;25.43;14.87;;;;;;;17.10;90.56;100680.45;126955;1086;104675;-80
2023/09/21 05:31:19;;;;;;;26.57;15.53;;;;;;;17.14;90.86;100679.63;127564;1086;101687;-81
2023/09/21 05:33:52;;;;;;;23.40;14.37;;;;;;;17.19;90.22;100682.34;128374;1085;101925;-78
2023/09/21 05:36:26;;;;;;;27.03;15.40;;;;;;;17.19;90.30;100680.56;128206;1085;102038;-80
2023/09/21 05:39:20;;;;;;;26.67;15.80;;;;;;;17.20;90.20;100690.31;127676;1086;102169;-81
2023/09/21 05:42:05;;;;;;;27.37;15.57;;;;;;;17.28;90.17;100689.48;127099;1089;104254;-80
2023/09/21 05:44:39;;;;;;;24.43;14.67;;;;;;;17.36;90.19;100693.14;128008;1086;104168;-80
2023/09/21 05:47:09;;;;;;;23.77;14.77;;;;;;;17.37;90.00;100689.59;128313;1085;101664;-81
2023/09/21 05:49:45;;;;;;;25.00;15.43;;;;;;;17.37;89.98;100689.59;128075;1085;102247;-83
2023/09/21 05:52:30;;;;;;;25.13;15.47;;;;;;;17.40;90.08;100686.97;127914;1085;101968;-82
2023/09/21 05:55:09;;;;;;;23.33;14.87;;;;;;;17.43;90.02;100687.89;128207;1085;101815;-81
2023/09/21 05:57:50;;;;;;;25.47;16.37;;;;;;;17.49;90.09;100691.50;127465;1086;104156;-80
2023/09/21 06:00:25;;;;;;;24.53;16.13;;;;;;;17.54;90.24;100689.77;127938;1085;101778;-82
2023/09/21 06:03:03;;;;;;;25.70;16.57;;;;;;;17.63;90.53;100694.30;127319;1086;101857;-83
2023/09/21 06:05:45;;;;;;;28.70;16.47;;;;;;;17.72;90.50;100697.92;128221;1085;102091;-81
2023/09/21 06:08:29;;;;;;;27.80;16.90;;;;;;;17.81;90.28;100696.22;128761;1084;104014;-83
2023/09/21 06:11:08;;;;;;;27.25;16.70;;;;;;;17.87;90.48;100696.27;127886;1086;104068;-82
2023/09/21 06:13:45;;;;;;;28.27;16.37;;;;;;;17.95;90.47;100694.59;127492;1086;102131;-80
2023/09/21 06:16:18;;;;;;;26.97;16.13;;;;;;;18.04;90.21;100704.42;127390;1086;104171;-81
2023/09/21 06:19:07;;;;;;;25.73;15.73;;;;;;;18.13;90.77;100704.50;128006;1086;101909;-81
2023/09/21 06:21:48;;;;;;;26.33;15.50;;;;;;;18.23;90.30;100703.70;127966;1086;101739;-81
2023/09/21 06:24:31;;;;;;;;;;;;;;;18.33;90.27;100702.88;128274;1086;101834;-79
2023/09/21 06:27:37;;;;;;;;;;;;;;;;;;;;;
2023/09/21 06:30:17;;;;;;;27.17;15.07;;;;;;;18.59;90.45;100702.17;128423;1085;101897;-80
2023/09/21 06:32:58;;;;;;;24.53;15.50;;;;;;;18.73;90.41;100701.34;127891;1086;104056;-81
2023/09/21 06:35:43;;;;;;;;;;;;;;;;;;;;;
2023/09/21 06:38:41;;;;;;;24.87;14.10;;;;;;;18.98;89.91;100702.38;128854;1085;101715;-80
2023/09/21 06:41:30;;;;;;;27.30;15.13;;;;;;;19.12;89.37;100694.45;127403;1086;104161;-81
2023/09/21 06:44:18;;;;;;;24.47;15.17;;;;;;;19.22;89.35;100697.16;127382;1086;119041;-80
2023/09/21 06:47:05;;;;;;;24.23;15.03;;;;;;;19.34;90.10;100698.98;127813;1086;102028;-80
2023/09/21 06:50:07;;;;;;;26.53;15.90;;;;;;;19.49;89.23;100689.25;127560;1086;104254;-81
2023/09/21 06:52:51;;;;;;;24.13;14.20;;;;;;;19.63;89.53;100698.14;127230;1086;102282;-82
2023/09/21 06:55:37;;;;;;;25.43;13.80;;;;;;;19.79;89.48;100703.52;128311;1085;101673;-83
2023/09/21 06:58:21;;;;;;;23.98;13.72;;;;;;;19.93;89.67;100696.45;127889;1086;102228;-81
2023/09/21 07:01:08;;;;;;;23.93;14.20;;;;;;;20.09;88.68;100697.34;127428;1086;104062;-82
2023/09/21 07:03:39;;;;;;;25.87;14.30;;;;;;;20.20;89.30;100690.22;127059;1086;104213;-80
2023/09/21 07:06:10;;;;;;;25.10;14.57;;;;;;;20.31;88.48;100692.88;127503;1086;101836;-80
2023/09/21 07:08:55;;;;;;;;;;;;;;;;;;;;;
2023/09/21 07:11:26;;;;;;;24.70;14.10;;;;;;;20.60;87.78;100684.83;126642;1086;101885;-82
2023/09/21 07:13:58;;;;;;;26.83;13.13;;;;;;;20.80;87.77;100683.89;128066;1085;104027;-82
2023/09/21 07:16:37;;;;;;;24.27;13.10;;;;;;;20.99;87.91;100684.73;128282;1086;104191;-79
2023/09/21 07:19:14;;;;;;;25.73;14.00;;;;;;;21.14;86.77;100678.42;127757;1086;104305;-84
2023/09/21 07:21:46;;;;;;;25.30;13.77;;;;;;;21.27;87.42;100677.48;127429;1086;104171;-85
2023/09/21 07:24:21;;;;;;;26.23;13.13;;;;;;;21.41;86.37;100680.06;127394;1086;104284;-81
2023/09/21 07:27:01;;;;;;;22.77;11.17;;;;;;;21.56;86.20;100673.76;127421;1086;104158;-79
2023/09/21 07:29:33;;;;;;;24.50;10.47;;;;;;;21.73;85.98;100678.98;127458;1086;104263;-79
2023/09/21 07:32:12;;;;;;;22.77;12.03;;;;;;;21.85;85.56;100676.22;127861;1085;101947;-76
2023/09/21 07:34:46;;;;;;;21.03;12.00;;;;;;;21.93;84.23;100673.48;126790;1086;101991;-78
2023/09/21 07:37:19;;;;;;;24.10;10.85;;;;;;;22.01;84.37;100670.75;126982;1086;102247;-78
2023/09/21 07:40:04;;;;;;;20.13;11.03;;;;;;;22.07;84.43;100676.91;127541;1086;101889;-78
2023/09/21 07:43:07;;;;;;;20.50;10.90;;;;;;;22.15;84.38;100673.30;127628;1086;101870;-77
2023/09/21 07:45:59;;;;;;;19.87;10.70;;;;;;;22.25;84.20;100665.18;127889;1085;111525;-82
2023/09/21 07:49:09;;;;;;;20.47;10.83;;;;;;;22.44;83.46;100659.69;128031;1086;102046;-82
2023/09/21 07:52:24;;;;;;;21.73;10.63;;;;;;;22.54;82.65;100664.01;127801;1089;104552;-80
2023/09/21 07:55:19;;;;;;;17.87;9.60;;;;;;;22.66;82.64;100660.32;127182;1086;101918;-82
2023/09/21 08:08:08;;;;;;;18.43;9.40;;;;;;;23.26;81.04;100654.20;128869;1085;104162;-82
2023/09/21 08:11:03;;;;;;;13.77;7.97;;;;;;;23.38;80.33;100650.48;127755;1086;102014;-83
2023/09/21 08:14:02;;;;;;;17.80;8.03;;;;;;;23.49;79.50;100647.64;127554;1086;104245;-83
2023/09/21 08:17:18;;;;;;;;;;;;;;;;;;;;;
2023/09/21 08:20:21;;;;;;;12.67;7.97;;;;;;;23.72;78.30;100649.05;127105;1086;104236;-77
2023/09/21 08:23:33;;;;;;;13.63;6.83;;;;;;;23.76;77.02;100651.66;127892;1085;102425;-81
2023/09/21 08:26:31;;;;;;;;;;;;;;;;;;;;;
2023/09/21 08:29:42;;;;;;;12.57;6.73;;;;;;;23.85;76.70;100646.19;127512;1086;101793;-79
2023/09/21 08:32:43;;;;;;;8.47;6.17;;;;;;;23.91;76.60;100645.20;127690;1086;101870;-80
2023/09/21 08:35:34;;;;;;;13.10;7.10;;;;;;;24.04;75.64;100645.87;127620;1086;104356;-81
2023/09/21 08:38:36;;;;;;;;;;;;;;;24.14;71.68;100638.57;127704;1086;101834;-79
2023/09/21 08:41:41;;;;;;;12.17;6.33;;;;;;;24.19;73.25;100634.00;127569;1086;101787;-83
2023/09/21 08:44:18;;;;;;;11.97;6.50;;;;;;;24.30;73.68;100628.44;127574;1086;104159;-80
2023/09/21 08:47:25;;;;;;;;;;;;;;;;;;;;;
2023/09/21 08:50:22;;;;;;;11.50;6.47;;;;;;;24.55;72.84;100629.71;127493;1085;102009;-78
2023/09/21 08:53:52;;;;;;;;;;;;;;;;;;;;;
2023/09/21 08:57:05;;;;;;;;;;;;;;;;;;;;;
2023/09/21 09:00:19;;;;;;;15.30;6.80;;;;;;;24.73;68.99;100620.45;127893;1086;102269;-81
2023/09/21 09:03:19;;;;;;;13.97;6.43;;;;;;;24.86;69.78;100614.82;127419;1086;104241;-79
2023/09/21 09:06:07;;;;;;;12.93;7.13;;;;;;;25.07;69.62;100619.72;127157;1086;101761;-83
2023/09/21 09:09:08;;;;;;;12.97;6.87;;;;;;;25.21;68.72;100618.50;128085;1086;101811;-80
2023/09/21 09:11:53;;;;;;;12.50;6.53;;;;;;;25.28;68.60;100621.05;128644;1086;104155;-81
2023/09/21 09:14:51;;;;;;;13.67;6.40;;;;;;;25.35;68.35;100621.78;126927;1089;104443;-82
2023/09/21 09:17:22;;;;;;;10.03;6.00;;;;;;;25.29;66.33;100617.45;126863;1089;101958;-78
2023/09/21 09:20:06;;;;;;;13.17;6.27;;;;;;;25.33;66.64;100617.38;127139;1089;102095;-78
2023/09/21 09:23:01;;;;;;;13.10;6.80;;;;;;;25.40;66.14;100614.52;126849;1086;102670;-78
2023/09/21 09:25:44;;;;;;;10.90;6.70;;;;;;;25.59;65.79;100616.76;126984;1086;102030;-80
2023/09/21 09:28:22;;;;;;;12.20;6.53;;;;;;;25.78;65.42;100609.98;127666;1086;101912;-79
2023/09/21 09:31:22;;;;;;;13.53;5.80;;;;;;;25.84;65.12;100619.70;127372;1086;104324;-76
2023/09/21 09:34:07;;;;;;;9.53;5.90;;;;;;;25.98;64.84;100611.31;126470;1086;101945;-79
2023/09/21 09:37:42;;;;;;;;;;;;;;;;;;;;;
2023/09/21 09:40:42;;;;;;;12.87;6.33;;;;;;;26.21;63.95;100610.70;127336;1086;104159;-81
2023/09/21 09:43:26;;;;;;;9.80;6.07;;;;;;;26.30;63.37;100609.55;127091;1086;104356;-78
2023/09/21 09:46:04;;;;;;;12.03;6.30;;;;;;;26.42;62.12;100613.71;126766;1086;104244;-79
2023/09/21 09:48:43;;;;;;;9.13;5.70;;;;;;;26.45;61.84;100598.36;127083;1085;104162;-82
2023/09/21 09:51:37;;;;;;;11.10;5.73;;;;;;;26.44;62.02;100601.96;126784;1086;104210;-80
2023/09/21 09:54:23;;;;;;;13.13;5.43;;;;;;;26.50;61.88;100599.09;128304;1086;101730;-80
2023/09/21 09:57:01;;;;;;;9.83;6.33;;;;;;;26.77;60.97;100606.45;127530;1086;104204;-79
2023/09/21 09:59:51;;;;;;;10.97;5.43;;;;;;;26.95;59.86;100600.50;127249;1086;103606;-81
2023/09/21 10:02:29;;;;;;;9.63;5.83;;;;;;;27.13;59.46;100595.47;127389;1086;104209;-81
2023/09/21 10:05:06;;;;;;;8.33;4.90;;;;;;;27.23;59.48;100591.56;127321;1086;104220;-80
2023/09/21 10:07:45;;;;;;;12.35;4.95;;;;;;;27.23;57.63;100595.12;127136;1086;104098;-78
2023/09/21 10:10:19;;;;;;;8.60;5.17;;;;;;;27.06;57.73;100589.41;126443;1086;104634;-78
2023/09/21 10:12:53;;;;;;;10.23;5.40;;;;;;;27.11;57.20;100594.64;126614;1086;104197;-79
2023/09/21 10:15:35;;;;;;;11.70;5.47;;;;;;;26.95;57.11;100592.42;126411;1085;102010;-78
2023/09/21 10:18:08;;;;;;;9.63;5.30;;;;;;;26.78;56.78;100587.55;126555;1085;104172;-79
2023/09/21 10:20:39;;;;;;;7.73;5.07;;;;;;;26.63;56.64;100587.98;126725;1086;102021;-79
2023/09/21 10:23:09;;;;;;;11.17;5.30;;;;;;;26.47;55.69;100580.35;126750;1086;104153;-81
2023/09/21 10:25:43;;;;;;;9.47;5.10;;;;;;;26.43;56.36;100578.70;126904;1086;102332;-79
2023/09/21 10:28:39;;;;;;;10.77;5.10;;;;;;;26.30;55.98;100579.95;127284;1086;102361;-81
2023/09/21 10:31:24;;;;;;;10.57;5.20;;;;;;;26.27;56.19;100578.26;127260;1086;104153;-82
2023/09/21 10:34:22;;;;;;;9.80;5.20;;;;;;;26.31;56.14;100569.16;127053;1086;102830;-80
2023/09/21 10:37:36;;;;;;;9.70;5.10;;;;;;;26.35;55.24;100567.25;127238;1086;104228;-78
2023/09/21 10:43:41;;;;;;;8.73;4.87;;;;;;;26.27;55.50;100561.22;127082;1085;102276;-81
2023/09/21 10:46:46;;;;;;;11.00;5.33;;;;;;;26.27;55.01;100553.15;127432;1085;104184;-78
2023/09/21 10:49:50;;;;;;;10.73;4.90;;;;;;;26.25;54.95;100552.32;127194;1086;101818;-79
2023/09/21 10:52:56;;;;;;;10.10;5.00;;;;;;;26.29;54.79;100544.12;127560;1085;104212;-80
2023/09/21 10:56:01;;;;;;;10.60;5.20;;;;;;;26.39;55.01;100541.16;127011;1089;104299;-79
2023/09/21 10:58:40;;;;;;;9.70;5.10;;;;;;;26.59;54.84;100544.14;127175;1086;104215;-78
2023/09/21 11:01:40;;;;;;;8.93;5.03;;;;;;;26.79;53.86;100538.19;126613;1086;104177;-79
2023/09/21 11:05:05;;;;;;;7.43;5.00;;;;;;;27.01;54.22;100535.70;126548;1086;104015;-78
2023/09/21 11:08:08;;;;;;;8.83;4.87;;;;;;;26.98;52.77;100519.64;126341;1090;104187;-77
2023/09/21 11:15:06;;;;;;;11.05;5.10;;;;;;;27.14;52.13;100527.22;126869;1089;101962;-80
2023/09/21 11:18:16;;;;;;;8.40;4.53;;;;;;;27.15;51.48;100516.39;126318;1089;104199;-80
2023/09/21 11:22:04;;;;;;;;;;;;;;;;;;;;;
2023/09/21 11:25:32;;;;;;;;;;;;;;;;;;;;;
2023/09/21 11:29:13;;;;;;;7.50;4.70;;;;;;;27.44;51.37;100498.39;127589;1086;102181;-79
2023/09/21 11:32:44;;;;;;;;;;;;;;;;;;;;;
2023/09/21 11:40:05;;;;;;;;;;;;;;;;;;;;;
2023/09/21 11:42:43;;;;;;;7.13;3.90;;;;;;;27.39;50.45;100479.69;127533;1089;102111;-81
2023/09/21 11:49:26;;;;;;;5.57;4.00;;;;;;;27.46;49.74;100477.69;125984;1089;101834;-77
2023/09/21 11:52:28;;;;;;;6.53;4.07;;;;;;;27.48;49.13;100478.50;127855;1085;101880;-83
2023/09/21 11:55:32;;;;;;;7.85;4.30;;;;;;;27.51;49.44;100477.52;127393;1086;101873;-81
2023/09/21 11:58:31;;;;;;;11.83;4.60;;;;;;;27.53;49.02;100481.91;126945;1090;101892;-79
2023/09/21 12:01:19;;;;;;;5.83;4.20;;;;;;;27.46;48.96;100477.69;126558;1093;105520;-80
2023/09/21 12:04:16;;;;;;;8.33;4.73;;;;;;;27.40;49.00;100473.38;126878;1093;101904;-76
2023/09/21 12:07:00;;;;;;;10.93;4.93;;;;;;;27.31;48.93;100483.56;126593;1086;104216;-79
2023/09/21 12:09:42;;;;;;;8.13;4.60;;;;;;;27.23;48.72;100484.69;128244;1085;104217;-79
2023/09/21 12:12:18;;;;;;;7.43;4.10;;;;;;;27.22;48.56;100472.18;127533;1085;101902;-80
2023/09/21 12:15:00;;;;;;;8.13;4.43;;;;;;;27.28;48.56;100475.59;126692;1086;104201;-80
2023/09/21 12:20:38;;;;;;;7.67;4.10;;;;;;;27.24;48.27;100466.73;128065;1085;101820;-83
2023/09/21 12:24:27;;;;;;;7.47;3.90;;;;;;;27.16;47.93;100455.32;127554;1089;107132;-81
2023/09/21 12:27:37;;;;;;;6.97;3.40;;;;;;;27.09;47.88;100465.44;127842;1089;101832;-83
2023/09/21 12:31:02;;;;;;;;;;;;;;;;;;;;;
2023/09/21 12:37:12;;;;;;;;;;;;;;;;;;;;;
2023/09/21 12:46:09;;;;;;;4.10;3.42;;;;;;;26.88;47.74;100462.52;127442;1086;104120;-79
2023/09/21 12:49:52;;;;;;;;;;;;;;;;;;;;;
2023/09/21 12:52:46;;;;;;;;;;;;;;;26.90;48.42;100455.27;128581;1085;102382;-84
2023/09/21 12:55:34;;;;;;;6.13;3.23;;;;;;;26.90;47.80;100455.27;128222;1086;104155;-82
2023/09/21 12:58:39;;;;;;;6.93;3.67;;;;;;;26.93;48.00;100448.91;127562;1085;101996;-79
2023/09/21 13:01:38;;;;;;;5.33;3.60;;;;;;;26.97;47.98;100455.94;127761;1086;102362;-81